createdAt,value
2018-03-29T00:00:53.613Z,988.21
2018-03-29T00:01:53.644Z,988.25
2018-03-29T00:02:53.585Z,988.26
2018-03-29T00:03:53.570Z,988.26
2018-03-29T00:04:53.557Z,988.27
2018-03-29T00:05:53.541Z,988.27
2018-03-29T00:06:53.526Z,988.29
2018-03-29T00:07:53.515Z,988.31
2018-03-29T00:08:53.497Z,988.31
2018-03-29T00:09:53.501Z,988.29
2018-03-29T00:10:53.468Z,988.34
2018-03-29T00:11:53.452Z,988.38
2018-03-29T00:12:53.447Z,988.43
2018-03-29T00:13:53.423Z,988.39
2018-03-29T00:14:53.408Z,988.30
2018-03-29T00:15:53.393Z,988.38
2018-03-29T00:16:53.380Z,988.36
2018-03-29T00:17:53.370Z,988.37
2018-03-29T00:18:53.379Z,988.36
2018-03-29T00:19:53.341Z,988.39
2018-03-29T00:20:53.320Z,988.38
2018-03-29T00:21:53.309Z,988.32
2018-03-29T00:22:53.291Z,988.34
2018-03-29T00:23:53.275Z,988.39
2018-03-29T00:24:53.261Z,988.31
2018-03-29T00:25:53.254Z,988.35
2018-03-29T00:26:53.232Z,988.38
2018-03-29T00:27:53.222Z,988.38
2018-03-29T00:28:53.201Z,988.36
2018-03-29T00:29:53.187Z,988.42
2018-03-29T00:30:53.172Z,988.36
2018-03-29T00:31:53.157Z,988.40
2018-03-29T00:32:53.143Z,988.39
2018-03-29T00:33:53.130Z,988.41
2018-03-29T00:34:53.114Z,988.38
2018-03-29T00:35:53.099Z,988.36
2018-03-29T00:36:53.085Z,988.37
2018-03-29T00:37:53.080Z,988.42
2018-03-29T00:38:53.055Z,988.37
2018-03-29T00:39:53.058Z,988.35
2018-03-29T00:40:53.026Z,988.43
2018-03-29T00:41:53.057Z,988.44
2018-03-29T00:42:52.998Z,988.44
2018-03-29T00:43:52.984Z,988.44
2018-03-29T00:44:52.985Z,988.47
2018-03-29T00:45:52.971Z,988.49
2018-03-29T00:46:52.939Z,988.47
2018-03-29T00:47:52.979Z,988.50
2018-03-29T00:48:52.910Z,988.51
2018-03-29T00:49:52.895Z,988.51
2018-03-29T00:50:52.901Z,988.56
2018-03-29T00:51:52.866Z,988.50
2018-03-29T00:52:52.851Z,988.54
2018-03-29T00:53:52.837Z,988.53
2018-03-29T00:54:52.822Z,988.57
2018-03-29T00:55:52.807Z,988.56
2018-03-29T00:56:52.793Z,988.57
2018-03-29T00:57:52.795Z,988.60
2018-03-29T00:58:52.768Z,988.56
2018-03-29T00:59:52.776Z,988.55
2018-03-29T01:00:52.736Z,988.60
2018-03-29T01:01:52.723Z,988.59
2018-03-29T01:02:52.707Z,988.56
2018-03-29T01:03:52.695Z,988.55
2018-03-29T01:04:52.688Z,988.54
2018-03-29T01:05:52.668Z,988.59
2018-03-29T01:06:52.649Z,988.60
2018-03-29T01:07:52.641Z,988.54
2018-03-29T01:08:52.619Z,988.57
2018-03-29T01:09:52.605Z,988.53
2018-03-29T01:10:52.591Z,988.56
2018-03-29T01:11:52.576Z,988.59
2018-03-29T01:12:52.561Z,988.53
2018-03-29T01:13:52.547Z,988.49
2018-03-29T01:14:52.533Z,988.57
2018-03-29T01:15:52.517Z,988.52
2018-03-29T01:16:52.503Z,988.59
2018-03-29T01:17:52.495Z,988.57
2018-03-29T01:18:52.512Z,988.60
2018-03-29T01:19:52.469Z,988.61
2018-03-29T01:20:52.451Z,988.67
2018-03-29T01:21:52.466Z,988.60
2018-03-29T01:22:52.417Z,988.63
2018-03-29T01:23:52.401Z,988.64
2018-03-29T01:24:52.396Z,988.66
2018-03-29T01:25:52.379Z,988.64
2018-03-29T01:26:52.359Z,988.68
2018-03-29T01:27:52.387Z,988.69
2018-03-29T01:28:52.330Z,988.68
2018-03-29T01:29:52.315Z,988.69
2018-03-29T01:30:52.308Z,988.69
2018-03-29T01:31:52.289Z,988.65
2018-03-29T01:32:52.273Z,988.67
2018-03-29T01:33:52.258Z,988.67
2018-03-29T01:34:52.245Z,988.68
2018-03-29T01:35:52.230Z,988.69
2018-03-29T01:36:52.223Z,988.71
2018-03-29T01:37:52.212Z,988.73
2018-03-29T01:38:52.189Z,988.73
2018-03-29T01:39:52.194Z,988.79
2018-03-29T01:40:52.158Z,988.78
2018-03-29T01:41:52.145Z,988.74
2018-03-29T01:42:52.131Z,988.75
2018-03-29T01:43:52.127Z,988.77
2018-03-29T01:44:52.101Z,988.79
2018-03-29T01:45:52.097Z,988.78
2018-03-29T01:46:52.073Z,988.77
2018-03-29T01:47:52.058Z,988.81
2018-03-29T01:48:52.055Z,988.78
2018-03-29T01:49:52.031Z,988.81
2018-03-29T01:50:52.015Z,988.80
2018-03-29T01:51:52.000Z,988.79
2018-03-29T01:52:51.986Z,988.78
2018-03-29T01:53:51.972Z,988.77
2018-03-29T01:54:51.960Z,988.75
2018-03-29T01:55:51.951Z,988.74
2018-03-29T01:56:51.939Z,988.77
2018-03-29T01:57:51.926Z,988.80
2018-03-29T01:58:51.904Z,988.78
2018-03-29T01:59:51.932Z,988.79
2018-03-29T02:00:51.871Z,988.82
2018-03-29T02:01:51.857Z,988.88
2018-03-29T02:02:51.852Z,988.86
2018-03-29T02:03:51.830Z,988.86
2018-03-29T02:04:51.817Z,988.86
2018-03-29T02:05:51.800Z,988.81
2018-03-29T02:06:51.818Z,988.83
2018-03-29T02:07:51.771Z,988.85
2018-03-29T02:08:51.756Z,988.87
2018-03-29T02:09:51.747Z,988.89
2018-03-29T02:10:51.729Z,988.87
2018-03-29T02:11:51.713Z,988.89
2018-03-29T02:12:51.700Z,988.87
2018-03-29T02:13:51.686Z,988.92
2018-03-29T02:14:51.673Z,988.93
2018-03-29T02:15:51.668Z,988.95
2018-03-29T02:16:51.652Z,988.90
2018-03-29T02:17:51.628Z,988.94
2018-03-29T02:18:51.626Z,988.93
2018-03-29T02:19:51.598Z,988.89
2018-03-29T02:20:51.587Z,988.90
2018-03-29T02:21:51.571Z,988.90
2018-03-29T02:22:51.563Z,988.91
2018-03-29T02:23:51.541Z,988.93
2018-03-29T02:24:51.536Z,988.93
2018-03-29T02:25:51.513Z,988.88
2018-03-29T02:26:51.499Z,988.89
2018-03-29T02:27:51.484Z,988.92
2018-03-29T02:28:51.471Z,988.88
2018-03-29T02:29:51.457Z,988.86
2018-03-29T02:30:51.443Z,988.93
2018-03-29T02:31:51.427Z,988.89
2018-03-29T02:32:51.414Z,988.91
2018-03-29T02:33:51.399Z,988.90
2018-03-29T02:34:51.392Z,988.89
2018-03-29T02:35:51.393Z,988.88
2018-03-29T02:36:51.364Z,988.92
2018-03-29T02:37:51.390Z,988.91
2018-03-29T02:38:51.368Z,988.94
2018-03-29T02:39:51.313Z,988.97
2018-03-29T02:40:51.300Z,988.95
2018-03-29T02:41:51.295Z,988.93
2018-03-29T02:42:51.279Z,988.91
2018-03-29T02:43:51.258Z,988.86
2018-03-29T02:44:51.283Z,988.92
2018-03-29T02:45:51.230Z,988.84
2018-03-29T02:46:51.215Z,988.86
2018-03-29T02:47:51.210Z,988.90
2018-03-29T02:48:51.195Z,988.94
2018-03-29T02:49:51.173Z,988.95
2018-03-29T02:50:51.160Z,988.89
2018-03-29T02:51:51.145Z,988.94
2018-03-29T02:52:51.135Z,988.95
2018-03-29T02:53:51.137Z,988.95
2018-03-29T02:54:51.111Z,988.93
2018-03-29T02:55:51.088Z,988.92
2018-03-29T02:56:51.082Z,988.91
2018-03-29T02:57:51.060Z,988.94
2018-03-29T02:58:51.046Z,988.92
2018-03-29T02:59:51.035Z,988.91
2018-03-29T03:00:51.028Z,988.95
2018-03-29T03:01:51.017Z,988.92
2018-03-29T03:02:50.990Z,988.92
2018-03-29T03:03:50.974Z,988.93
2018-03-29T03:04:50.961Z,988.87
2018-03-29T03:05:50.950Z,988.89
2018-03-29T03:06:50.933Z,988.88
2018-03-29T03:07:50.920Z,988.83
2018-03-29T03:08:50.905Z,988.85
2018-03-29T03:09:50.891Z,988.83
2018-03-29T03:10:50.877Z,988.82
2018-03-29T03:11:50.866Z,988.81
2018-03-29T03:12:50.849Z,988.80
2018-03-29T03:13:50.849Z,988.78
2018-03-29T03:14:50.820Z,988.70
2018-03-29T03:15:51.011Z,988.74
2018-03-29T03:16:50.792Z,988.78
2018-03-29T03:17:50.781Z,988.81
2018-03-29T03:18:50.784Z,988.74
2018-03-29T03:19:50.764Z,988.71
2018-03-29T03:20:50.735Z,988.76
2018-03-29T03:21:50.768Z,988.73
2018-03-29T03:22:50.708Z,988.77
2018-03-29T03:23:50.693Z,988.79
2018-03-29T03:24:50.693Z,988.84
2018-03-29T03:25:50.665Z,988.83
2018-03-29T03:26:50.652Z,988.83
2018-03-29T03:27:50.646Z,988.79
2018-03-29T03:28:50.623Z,988.83
2018-03-29T03:29:50.608Z,988.86
2018-03-29T03:30:50.596Z,988.82
2018-03-29T03:31:50.590Z,988.85
2018-03-29T03:32:50.566Z,988.81
2018-03-29T03:33:50.567Z,988.84
2018-03-29T03:34:50.538Z,988.83
2018-03-29T03:35:50.523Z,988.79
2018-03-29T03:36:50.509Z,988.81
2018-03-29T03:37:50.508Z,988.81
2018-03-29T03:38:50.482Z,988.82
2018-03-29T03:39:50.482Z,988.80
2018-03-29T03:40:50.453Z,988.84
2018-03-29T03:41:50.439Z,988.80
2018-03-29T03:42:50.425Z,988.83
2018-03-29T03:43:50.411Z,988.83
2018-03-29T03:44:50.396Z,988.84
2018-03-29T03:45:50.383Z,988.82
2018-03-29T03:46:50.368Z,988.85
2018-03-29T03:47:50.360Z,988.85
2018-03-29T03:48:50.342Z,988.83
2018-03-29T03:49:50.327Z,988.83
2018-03-29T03:50:50.311Z,988.85
2018-03-29T03:51:50.313Z,988.84
2018-03-29T03:52:50.283Z,988.85
2018-03-29T03:53:50.318Z,988.82
2018-03-29T03:54:50.259Z,988.86
2018-03-29T03:55:50.240Z,988.84
2018-03-29T03:56:50.240Z,988.85
2018-03-29T03:57:50.226Z,988.86
2018-03-29T03:58:50.198Z,988.85
2018-03-29T03:59:50.229Z,988.89
2018-03-29T04:00:50.168Z,988.87
2018-03-29T04:01:50.154Z,988.87
2018-03-29T04:02:50.140Z,988.85
2018-03-29T04:03:50.124Z,988.86
2018-03-29T04:04:50.111Z,988.83
2018-03-29T04:05:50.096Z,988.81
2018-03-29T04:06:50.082Z,988.83
2018-03-29T04:07:50.093Z,988.84
2018-03-29T04:08:50.053Z,988.83
2018-03-29T04:09:50.048Z,988.78
2018-03-29T04:10:50.024Z,988.83
2018-03-29T04:11:50.009Z,988.82
2018-03-29T04:12:49.994Z,988.82
2018-03-29T04:13:49.990Z,988.85
2018-03-29T04:14:49.971Z,988.83
2018-03-29T04:15:49.966Z,988.82
2018-03-29T04:16:49.936Z,988.80
2018-03-29T04:17:49.922Z,988.88
2018-03-29T04:18:49.908Z,988.83
2018-03-29T04:19:49.892Z,988.90
2018-03-29T04:20:49.878Z,988.88
2018-03-29T04:21:49.864Z,988.89
2018-03-29T04:22:49.849Z,988.87
2018-03-29T04:23:49.837Z,988.91
2018-03-29T04:24:49.820Z,988.91
2018-03-29T04:25:49.805Z,988.96
2018-03-29T04:26:49.791Z,988.97
2018-03-29T04:27:49.791Z,988.95
2018-03-29T04:28:49.763Z,988.97
2018-03-29T04:29:49.796Z,988.97
2018-03-29T04:30:49.734Z,988.95
2018-03-29T04:31:49.718Z,988.93
2018-03-29T04:32:49.724Z,988.95
2018-03-29T04:33:49.704Z,988.92
2018-03-29T04:34:49.681Z,989.00
2018-03-29T04:35:49.710Z,988.99
2018-03-29T04:36:49.646Z,988.98
2018-03-29T04:37:49.632Z,988.98
2018-03-29T04:38:49.633Z,988.96
2018-03-29T04:39:49.602Z,988.97
2018-03-29T04:40:49.588Z,988.98
2018-03-29T04:41:49.576Z,988.97
2018-03-29T04:42:49.560Z,989.00
2018-03-29T04:43:49.544Z,989.00
2018-03-29T04:44:49.530Z,988.98
2018-03-29T04:45:49.528Z,989.03
2018-03-29T04:46:49.503Z,988.95
2018-03-29T04:47:49.512Z,989.03
2018-03-29T04:48:49.472Z,988.99
2018-03-29T04:49:49.457Z,988.99
2018-03-29T04:50:49.448Z,989.03
2018-03-29T04:51:49.428Z,989.01
2018-03-29T04:52:49.616Z,989.00
2018-03-29T04:53:49.398Z,989.01
2018-03-29T04:54:49.384Z,988.98
2018-03-29T04:55:49.368Z,988.99
2018-03-29T04:56:49.356Z,989.01
2018-03-29T04:57:49.383Z,989.00
2018-03-29T04:58:49.326Z,988.99
2018-03-29T04:59:49.366Z,988.99
2018-03-29T05:00:49.321Z,988.98
2018-03-29T05:01:49.281Z,988.93
2018-03-29T05:02:49.293Z,988.99
2018-03-29T05:03:49.251Z,988.98
2018-03-29T05:04:49.474Z,988.96
2018-03-29T05:05:49.222Z,988.98
2018-03-29T05:06:49.207Z,988.98
2018-03-29T05:07:49.208Z,989.01
2018-03-29T05:08:49.176Z,988.99
2018-03-29T05:09:49.161Z,989.03
2018-03-29T05:10:49.147Z,989.04
2018-03-29T05:11:49.131Z,989.05
2018-03-29T05:12:49.117Z,989.05
2018-03-29T05:13:49.102Z,989.05
2018-03-29T05:14:49.145Z,989.09
2018-03-29T05:15:49.071Z,989.06
2018-03-29T05:16:49.117Z,989.11
2018-03-29T05:17:49.041Z,989.07
2018-03-29T05:18:49.029Z,989.08
2018-03-29T05:19:49.012Z,989.08
2018-03-29T05:20:48.996Z,989.12
2018-03-29T05:21:48.981Z,989.09
2018-03-29T05:22:48.965Z,989.17
2018-03-29T05:23:48.959Z,989.16
2018-03-29T05:24:48.934Z,989.13
2018-03-29T05:25:48.919Z,989.10
2018-03-29T05:26:48.906Z,989.14
2018-03-29T05:27:48.889Z,989.17
2018-03-29T05:28:48.906Z,989.13
2018-03-29T05:29:48.859Z,989.15
2018-03-29T05:30:48.849Z,989.13
2018-03-29T05:31:48.828Z,989.13
2018-03-29T05:32:48.813Z,989.11
2018-03-29T05:33:48.875Z,989.12
2018-03-29T05:34:48.783Z,989.11
2018-03-29T05:35:48.767Z,989.14
2018-03-29T05:36:48.837Z,989.14
2018-03-29T05:37:48.738Z,989.14
2018-03-29T05:38:48.723Z,989.09
2018-03-29T05:39:48.912Z,989.14
2018-03-29T05:40:48.724Z,989.12
2018-03-29T05:41:48.679Z,989.15
2018-03-29T05:42:48.690Z,989.10
2018-03-29T05:43:48.648Z,989.11
2018-03-29T05:44:48.633Z,989.12
2018-03-29T05:45:48.632Z,989.11
2018-03-29T05:46:48.604Z,989.11
2018-03-29T05:47:48.586Z,989.11
2018-03-29T05:48:48.572Z,989.12
2018-03-29T05:49:48.558Z,989.08
2018-03-29T05:50:48.546Z,989.09
2018-03-29T05:51:48.531Z,989.09
2018-03-29T05:52:48.512Z,989.11
2018-03-29T05:53:48.498Z,989.14
2018-03-29T05:54:48.489Z,989.13
2018-03-29T05:55:48.468Z,989.13
2018-03-29T05:56:48.453Z,989.15
2018-03-29T05:57:48.439Z,989.17
2018-03-29T05:58:48.425Z,989.19
2018-03-29T05:59:48.491Z,989.23
2018-03-29T06:00:48.394Z,989.24
2018-03-29T06:01:48.380Z,989.24
2018-03-29T06:02:48.367Z,989.29
2018-03-29T06:03:48.349Z,989.22
2018-03-29T06:04:48.336Z,989.25
2018-03-29T06:05:48.320Z,989.23
2018-03-29T06:06:48.556Z,989.22
2018-03-29T06:07:48.292Z,989.25
2018-03-29T06:08:48.276Z,989.30
2018-03-29T06:09:48.327Z,989.25
2018-03-29T06:10:48.248Z,989.23
2018-03-29T06:11:48.234Z,989.26
2018-03-29T06:12:48.259Z,989.29
2018-03-29T06:13:48.204Z,989.32
2018-03-29T06:14:48.190Z,989.30
2018-03-29T06:15:48.202Z,989.33
2018-03-29T06:16:48.160Z,989.30
2018-03-29T06:17:48.218Z,989.32
2018-03-29T06:18:48.147Z,989.32
2018-03-29T06:19:48.117Z,989.36
2018-03-29T06:20:48.104Z,989.34
2018-03-29T06:21:48.092Z,989.34
2018-03-29T06:22:48.075Z,989.39
2018-03-29T06:23:48.062Z,989.37
2018-03-29T06:24:48.052Z,989.35
2018-03-29T06:25:48.032Z,989.35
2018-03-29T06:26:48.083Z,989.37
2018-03-29T06:27:48.004Z,989.32
2018-03-29T06:28:47.990Z,989.37
2018-03-29T06:29:48.059Z,989.36
2018-03-29T06:30:47.962Z,989.36
2018-03-29T06:31:47.956Z,989.37
2018-03-29T06:32:48.001Z,989.32
2018-03-29T06:33:47.923Z,989.35
2018-03-29T06:34:47.906Z,989.40
2018-03-29T06:35:47.936Z,989.36
2018-03-29T06:36:47.877Z,989.36
2018-03-29T06:37:47.866Z,989.37
2018-03-29T06:38:47.853Z,989.38
2018-03-29T06:39:47.837Z,989.36
2018-03-29T06:40:47.820Z,989.40
2018-03-29T06:41:47.809Z,989.35
2018-03-29T06:42:47.794Z,989.36
2018-03-29T06:43:47.779Z,989.39
2018-03-29T06:44:47.765Z,989.42
2018-03-29T06:45:47.751Z,989.36
2018-03-29T06:46:47.743Z,989.39
2018-03-29T06:47:47.728Z,989.37
2018-03-29T06:48:47.710Z,989.37
2018-03-29T06:49:47.957Z,989.33
2018-03-29T06:50:47.685Z,989.39
2018-03-29T06:51:47.669Z,989.40
2018-03-29T06:52:47.859Z,989.38
2018-03-29T06:53:47.643Z,989.41
2018-03-29T06:54:47.676Z,989.42
2018-03-29T06:55:47.818Z,989.42
2018-03-29T06:56:47.601Z,989.46
2018-03-29T06:57:47.589Z,989.46
2018-03-29T06:58:47.590Z,989.47
2018-03-29T06:59:47.561Z,989.46
2018-03-29T07:00:47.553Z,989.50
2018-03-29T07:01:47.536Z,989.53
2018-03-29T07:02:47.544Z,989.49
2018-03-29T07:03:47.508Z,989.53
2018-03-29T07:04:47.497Z,989.48
2018-03-29T07:05:47.484Z,989.56
2018-03-29T07:06:47.470Z,989.56
2018-03-29T07:07:47.455Z,989.46
2018-03-29T07:08:47.445Z,989.53
2018-03-29T07:09:47.432Z,989.59
2018-03-29T07:10:47.496Z,989.55
2018-03-29T07:11:47.404Z,989.57
2018-03-29T07:12:47.391Z,989.59
2018-03-29T07:13:47.439Z,989.58
2018-03-29T07:14:47.368Z,989.58
2018-03-29T07:15:47.352Z,989.61
2018-03-29T07:16:47.384Z,989.59
2018-03-29T07:17:47.327Z,989.62
2018-03-29T07:18:47.314Z,989.57
2018-03-29T07:19:47.305Z,989.65
2018-03-29T07:20:47.288Z,989.64
2018-03-29T07:21:47.280Z,989.72
2018-03-29T07:22:47.264Z,989.69
2018-03-29T07:23:47.250Z,989.65
2018-03-29T07:24:47.237Z,989.68
2018-03-29T07:25:47.225Z,989.65
2018-03-29T07:26:47.213Z,989.70
2018-03-29T07:27:47.431Z,989.65
2018-03-29T07:28:47.190Z,989.70
2018-03-29T07:29:47.175Z,989.68
2018-03-29T07:30:47.244Z,989.67
2018-03-29T07:31:47.149Z,989.73
2018-03-29T07:32:47.137Z,989.67
2018-03-29T07:33:47.147Z,989.75
2018-03-29T07:34:47.112Z,989.77
2018-03-29T07:35:47.099Z,989.83
2018-03-29T07:36:47.089Z,989.79
2018-03-29T07:37:47.074Z,989.78
2018-03-29T07:38:47.062Z,989.81
2018-03-29T07:39:47.086Z,989.78
2018-03-29T07:40:47.042Z,989.77
2018-03-29T07:41:47.025Z,989.79
2018-03-29T07:42:47.011Z,989.81
2018-03-29T07:43:47.000Z,989.79
2018-03-29T07:44:46.985Z,989.79
2018-03-29T07:45:46.976Z,989.78
2018-03-29T07:46:46.959Z,989.81
2018-03-29T07:47:47.149Z,989.82
2018-03-29T07:48:46.933Z,989.83
2018-03-29T07:49:46.920Z,989.83
2018-03-29T07:50:46.997Z,989.79
2018-03-29T07:51:46.896Z,989.80
2018-03-29T07:52:46.881Z,989.82
2018-03-29T07:53:46.896Z,989.82
2018-03-29T07:54:46.856Z,989.84
2018-03-29T07:55:46.844Z,989.79
2018-03-29T07:56:46.830Z,989.78
2018-03-29T07:57:46.816Z,989.89
2018-03-29T07:58:46.804Z,989.80
2018-03-29T07:59:46.792Z,989.88
2018-03-29T08:00:46.776Z,989.90
2018-03-29T08:01:46.765Z,989.85
2018-03-29T08:02:46.752Z,989.87
2018-03-29T08:03:46.832Z,989.86
2018-03-29T08:04:46.725Z,989.91
2018-03-29T08:05:46.714Z,989.89
2018-03-29T08:06:46.749Z,989.92
2018-03-29T08:07:46.688Z,989.94
2018-03-29T08:08:46.675Z,989.91
2018-03-29T08:09:46.870Z,989.87
2018-03-29T08:10:46.652Z,989.87
2018-03-29T08:11:46.636Z,989.90
2018-03-29T08:12:46.647Z,989.89
2018-03-29T08:13:46.661Z,989.87
2018-03-29T08:14:46.600Z,989.86
2018-03-29T08:15:46.587Z,989.89
2018-03-29T08:16:46.575Z,989.84
2018-03-29T08:17:46.566Z,989.93
2018-03-29T08:18:46.550Z,989.88
2018-03-29T08:19:46.539Z,989.98
2018-03-29T08:20:46.524Z,989.97
2018-03-29T08:21:46.516Z,989.97
2018-03-29T08:22:46.502Z,989.99
2018-03-29T08:23:46.552Z,989.91
2018-03-29T08:24:46.475Z,990.04
2018-03-29T08:25:46.473Z,990.02
2018-03-29T08:26:46.654Z,990.05
2018-03-29T08:27:46.442Z,990.09
2018-03-29T08:28:46.431Z,990.05
2018-03-29T08:29:46.447Z,990.09
2018-03-29T08:30:46.403Z,990.12
2018-03-29T08:31:46.393Z,990.08
2018-03-29T08:32:46.378Z,990.11
2018-03-29T08:33:46.366Z,990.09
2018-03-29T08:34:46.358Z,990.08
2018-03-29T08:35:46.342Z,990.08
2018-03-29T08:36:46.334Z,990.09
2018-03-29T08:37:46.527Z,990.12
2018-03-29T08:38:46.312Z,990.11
2018-03-29T08:39:46.296Z,990.08
2018-03-29T08:41:46.273Z,990.11
2018-03-29T08:42:46.294Z,990.05
2018-03-29T08:43:46.292Z,990.11
2018-03-29T08:44:46.236Z,990.12
2018-03-29T08:45:46.229Z,990.10
2018-03-29T08:46:46.227Z,990.15
2018-03-29T08:47:46.200Z,990.13
2018-03-29T08:48:46.194Z,990.13
2018-03-29T08:49:46.177Z,990.12
2018-03-29T08:50:46.167Z,990.11
2018-03-29T08:51:46.153Z,990.15
2018-03-29T08:52:46.142Z,990.18
2018-03-29T08:53:46.132Z,990.17
2018-03-29T08:54:46.326Z,990.17
2018-03-29T08:55:46.108Z,990.13
2018-03-29T08:56:46.099Z,990.16
2018-03-29T08:57:46.166Z,990.13
2018-03-29T08:58:46.076Z,990.14
2018-03-29T08:59:46.064Z,990.14
2018-03-29T09:00:46.258Z,990.14
2018-03-29T09:01:46.043Z,990.18
2018-03-29T09:02:46.036Z,990.16
2018-03-29T09:03:46.021Z,990.23
2018-03-29T09:04:46.099Z,990.17
2018-03-29T09:05:46.002Z,990.18
2018-03-29T09:06:45.990Z,990.17
2018-03-29T09:07:45.978Z,990.15
2018-03-29T09:08:45.972Z,990.10
2018-03-29T09:09:45.958Z,990.15
2018-03-29T09:10:45.951Z,990.18
2018-03-29T09:11:45.936Z,990.16
2018-03-29T09:12:45.930Z,990.18
2018-03-29T09:13:45.916Z,990.21
2018-03-29T09:14:45.907Z,990.25
2018-03-29T09:15:45.958Z,990.23
2018-03-29T09:16:45.885Z,990.25
2018-03-29T09:17:45.874Z,990.22
2018-03-29T09:18:46.067Z,990.25
2018-03-29T09:19:45.854Z,990.26
2018-03-29T09:20:45.843Z,990.28
2018-03-29T09:21:45.868Z,990.27
2018-03-29T09:22:45.821Z,990.25
2018-03-29T09:23:45.809Z,990.31
2018-03-29T09:24:45.800Z,990.31
2018-03-29T09:25:45.792Z,990.27
2018-03-29T09:26:45.778Z,990.28
2018-03-29T09:27:45.772Z,990.27
2018-03-29T09:28:45.755Z,990.30
2018-03-29T09:29:45.839Z,990.32
2018-03-29T09:30:45.735Z,990.30
2018-03-29T09:31:45.723Z,990.31
2018-03-29T09:32:45.924Z,990.31
2018-03-29T09:33:45.704Z,990.27
2018-03-29T09:34:45.690Z,990.25
2018-03-29T09:35:45.763Z,990.26
2018-03-29T09:36:45.667Z,990.24
2018-03-29T09:37:45.661Z,990.29
2018-03-29T09:38:45.656Z,990.23
2018-03-29T09:39:45.637Z,990.24
2018-03-29T09:40:45.623Z,990.24
2018-03-29T09:41:45.616Z,990.29
2018-03-29T09:42:45.601Z,990.31
2018-03-29T09:43:45.589Z,990.29
2018-03-29T09:44:45.579Z,990.32
2018-03-29T09:45:45.567Z,990.29
2018-03-29T09:46:45.759Z,990.27
2018-03-29T09:47:45.555Z,990.28
2018-03-29T09:48:45.539Z,990.32
2018-03-29T09:50:45.512Z,990.32
2018-03-29T09:51:45.502Z,990.28
2018-03-29T09:52:45.521Z,990.29
2018-03-29T09:53:45.478Z,990.27
2018-03-29T09:54:45.466Z,990.32
2018-03-29T09:55:45.455Z,990.31
2018-03-29T09:56:45.444Z,990.32
2018-03-29T09:57:45.432Z,990.29
2018-03-29T09:58:45.422Z,990.26
2018-03-29T09:59:45.411Z,990.31
2018-03-29T10:00:45.619Z,990.30
2018-03-29T10:01:45.391Z,990.32
2018-03-29T10:02:45.376Z,990.36
2018-03-29T10:03:45.364Z,990.32
2018-03-29T10:04:45.410Z,990.28
2018-03-29T10:05:45.342Z,990.36
2018-03-29T10:06:45.333Z,990.36
2018-03-29T10:07:45.322Z,990.29
2018-03-29T10:08:45.312Z,990.35
2018-03-29T10:09:45.297Z,990.32
2018-03-29T10:10:45.290Z,990.34
2018-03-29T10:11:45.276Z,990.34
2018-03-29T10:12:45.267Z,990.36
2018-03-29T10:13:45.261Z,990.36
2018-03-29T10:14:45.253Z,990.37
2018-03-29T10:15:45.312Z,990.33
2018-03-29T10:16:45.231Z,990.30
2018-03-29T10:17:45.229Z,990.32
2018-03-29T10:18:45.269Z,990.23
2018-03-29T10:19:45.212Z,990.27
2018-03-29T10:20:45.212Z,990.19
2018-03-29T10:21:45.227Z,990.22
2018-03-29T10:22:45.199Z,990.19
2018-03-29T10:23:45.194Z,990.23
2018-03-29T10:24:45.180Z,990.18
2018-03-29T10:25:45.180Z,990.22
2018-03-29T10:26:45.168Z,990.21
2018-03-29T10:27:45.185Z,990.22
2018-03-29T10:28:45.152Z,990.18
2018-03-29T10:29:45.347Z,990.18
2018-03-29T10:30:45.140Z,990.15
2018-03-29T10:31:45.122Z,990.11
2018-03-29T10:32:45.178Z,990.12
2018-03-29T10:33:45.108Z,990.10
2018-03-29T10:34:45.095Z,990.12
2018-03-29T10:35:45.131Z,990.10
2018-03-29T10:36:45.078Z,990.12
2018-03-29T10:37:45.070Z,990.11
2018-03-29T10:38:45.059Z,990.09
2018-03-29T10:39:45.049Z,990.11
2018-03-29T10:40:45.049Z,990.08
2018-03-29T10:41:45.036Z,990.05
2018-03-29T10:42:45.025Z,990.07
2018-03-29T10:43:45.113Z,990.16
2018-03-29T10:44:45.009Z,990.13
2018-03-29T10:45:44.998Z,990.08
2018-03-29T10:46:45.086Z,990.05
2018-03-29T10:47:44.982Z,990.12
2018-03-29T10:48:44.974Z,990.08
2018-03-29T10:49:44.977Z,990.06
2018-03-29T10:50:44.960Z,990.07
2018-03-29T10:51:44.954Z,990.04
2018-03-29T10:52:44.952Z,990.02
2018-03-29T10:53:44.944Z,990.10
2018-03-29T10:54:44.940Z,990.07
2018-03-29T10:55:44.937Z,990.08
2018-03-29T10:56:44.933Z,990.10
2018-03-29T10:57:44.977Z,990.13
2018-03-29T10:58:44.931Z,990.14
2018-03-29T10:59:44.931Z,990.11
2018-03-29T11:00:44.927Z,990.13
2018-03-29T11:01:44.928Z,990.19
2018-03-29T11:02:45.129Z,990.17
2018-03-29T11:03:44.925Z,990.10
2018-03-29T11:04:44.926Z,990.10
2018-03-29T11:05:44.926Z,990.09
2018-03-29T11:06:44.926Z,990.05
2018-03-29T11:07:44.926Z,990.03
2018-03-29T11:08:44.927Z,990.04
2018-03-29T11:09:44.927Z,990.09
2018-03-29T11:10:44.930Z,990.13
2018-03-29T11:11:44.925Z,990.09
2018-03-29T11:12:44.924Z,990.08
2018-03-29T11:13:44.964Z,990.18
2018-03-29T11:14:44.923Z,990.15
2018-03-29T11:15:44.920Z,990.16
2018-03-29T11:16:44.917Z,990.18
2018-03-29T11:17:44.916Z,990.14
2018-03-29T11:18:44.913Z,990.10
2018-03-29T11:19:44.912Z,990.19
2018-03-29T11:20:44.910Z,990.09
2018-03-29T11:21:44.907Z,990.13
2018-03-29T11:22:44.906Z,990.07
2018-03-29T11:23:44.904Z,990.01
2018-03-29T11:24:44.986Z,990.04
2018-03-29T11:25:44.893Z,990.02
2018-03-29T11:26:44.891Z,990.01
2018-03-29T11:27:44.922Z,990.00
2018-03-29T11:28:44.882Z,990.04
2018-03-29T11:29:44.877Z,990.04
2018-03-29T11:30:44.886Z,990.14
2018-03-29T11:31:44.871Z,990.08
2018-03-29T11:32:44.868Z,990.04
2018-03-29T11:33:44.866Z,990.02
2018-03-29T11:34:44.866Z,990.09
2018-03-29T11:35:44.944Z,990.03
2018-03-29T11:36:44.863Z,989.96
2018-03-29T11:37:44.869Z,990.02
2018-03-29T11:38:44.910Z,990.01
2018-03-29T11:39:44.862Z,990.01
2018-03-29T11:40:44.862Z,989.97
2018-03-29T11:41:44.862Z,990.00
2018-03-29T11:42:44.868Z,990.01
2018-03-29T11:43:44.859Z,990.00
2018-03-29T11:44:44.862Z,989.95
2018-03-29T11:45:44.859Z,989.94
2018-03-29T11:46:45.104Z,989.98
2018-03-29T11:47:44.854Z,990.00
2018-03-29T11:48:44.857Z,989.93
2018-03-29T11:49:44.946Z,989.94
2018-03-29T11:50:44.849Z,989.93
2018-03-29T11:51:44.848Z,989.93
2018-03-29T11:52:44.840Z,989.95
2018-03-29T11:53:44.840Z,989.94
2018-03-29T11:54:44.834Z,989.96
2018-03-29T11:55:44.830Z,989.98
2018-03-29T11:56:44.828Z,990.01
2018-03-29T11:57:44.824Z,989.98
2018-03-29T11:58:44.822Z,990.00
2018-03-29T11:59:44.822Z,989.97
2018-03-29T12:00:44.890Z,989.95
2018-03-29T12:01:44.817Z,989.95
2018-03-29T12:02:44.816Z,989.98
2018-03-29T12:03:44.821Z,989.97
2018-03-29T12:04:44.816Z,989.93
2018-03-29T12:05:44.814Z,989.97
2018-03-29T12:06:44.810Z,989.93
2018-03-29T12:07:44.814Z,989.97
2018-03-29T12:08:44.810Z,989.95
2018-03-29T12:09:44.864Z,989.94
2018-03-29T12:10:44.812Z,990.00
2018-03-29T12:11:44.810Z,989.95
2018-03-29T12:12:44.811Z,990.00
2018-03-29T12:13:44.819Z,989.98
2018-03-29T12:14:44.813Z,990.07
2018-03-29T12:15:44.818Z,990.02
2018-03-29T12:16:44.814Z,989.98
2018-03-29T12:17:44.913Z,989.98
2018-03-29T12:18:44.817Z,990.02
2018-03-29T12:19:44.815Z,990.02
2018-03-29T12:20:44.881Z,989.98
2018-03-29T12:21:44.814Z,989.99
2018-03-29T12:22:44.815Z,990.01
2018-03-29T12:23:44.840Z,990.02
2018-03-29T12:24:44.810Z,990.02
2018-03-29T12:25:44.804Z,990.10
2018-03-29T12:26:44.800Z,990.05
2018-03-29T12:27:44.794Z,990.08
2018-03-29T12:28:44.789Z,990.06
2018-03-29T12:29:44.783Z,990.05
2018-03-29T12:30:44.778Z,990.03